createdAt,value
2019-01-14T00:00:05.701Z,30.7
2019-01-14T00:00:55.676Z,30.8
2019-01-14T00:01:45.735Z,30.9
2019-01-14T00:02:36.062Z,31.1
2019-01-14T00:03:26.138Z,31.2
2019-01-14T00:04:15.981Z,31.3
2019-01-14T00:05:06.166Z,31.4
2019-01-14T00:05:56.155Z,31.5
2019-01-14T00:06:46.194Z,31.6
2019-01-14T00:07:35.993Z,31.6
2019-01-14T00:08:25.984Z,31.7
2019-01-14T00:09:31.023Z,31.8
2019-01-14T00:10:06.378Z,31.8
2019-01-14T00:10:56.910Z,31.8
2019-01-14T00:11:46.971Z,31.9
2019-01-14T00:12:36.763Z,31.9
2019-01-14T00:13:26.800Z,32
2019-01-14T00:14:16.841Z,32.1
2019-01-14T00:15:06.940Z,32.1
2019-01-14T00:15:56.758Z,32.1
2019-01-14T00:16:47.380Z,32.2
2019-01-14T00:17:37.100Z,32.3
2019-01-14T00:18:27.430Z,32.3
2019-01-14T00:19:17.190Z,31.8
2019-01-14T00:20:06.550Z,31.1
2019-01-14T00:20:57.308Z,30.9
2019-01-14T00:21:47.365Z,30.8
2019-01-14T00:22:36.582Z,30.6
2019-01-14T00:23:27.810Z,30.4
2019-01-14T00:24:17.567Z,30.3
2019-01-14T00:25:08.068Z,30.1
2019-01-14T00:25:57.666Z,30.1
2019-01-14T00:26:47.712Z,30
2019-01-14T00:27:38.092Z,29.9
2019-01-14T00:28:27.530Z,29.9
2019-01-14T00:29:18.149Z,29.3
2019-01-14T00:30:07.672Z,28.8
2019-01-14T00:30:57.724Z,28.2
2019-01-14T00:31:48.317Z,27.9
2019-01-14T00:32:39.160Z,28.3
2019-01-14T00:33:28.479Z,28.8
2019-01-14T00:34:18.502Z,29.1
2019-01-14T00:35:08.289Z,29.5
2019-01-14T00:35:58.402Z,29.8
2019-01-14T00:36:47.894Z,29.9
2019-01-14T00:37:38.450Z,30.1
2019-01-14T00:38:28.307Z,30.3
2019-01-14T00:39:18.341Z,30.4
2019-01-14T00:40:08.417Z,30.6
2019-01-14T00:40:57.971Z,30.7
2019-01-14T00:41:48.538Z,30.8
2019-01-14T00:42:38.291Z,30.9
2019-01-14T00:43:28.567Z,31.1
2019-01-14T00:44:18.673Z,31.1
2019-01-14T00:45:08.711Z,30.2
2019-01-14T00:45:59.292Z,29.1
2019-01-14T00:46:49.333Z,27.9
2019-01-14T00:47:41.095Z,27.1
2019-01-14T00:48:29.488Z,25.8
2019-01-14T00:49:18.983Z,24.5
2019-01-14T00:50:09.021Z,23.7
2019-01-14T00:50:59.336Z,23.8
2019-01-14T00:51:49.118Z,24.2
2019-01-14T00:52:39.471Z,25.4
2019-01-14T00:53:29.533Z,26.3
2019-01-14T00:54:19.358Z,27
2019-01-14T00:55:09.392Z,27.8
2019-01-14T00:55:59.398Z,28.4
2019-01-14T00:56:49.736Z,28.9
2019-01-14T00:57:40.109Z,29.3
2019-01-14T00:58:29.601Z,29.6
2019-01-14T00:59:18.804Z,29.8
2019-01-14T01:00:09.968Z,30
2019-01-14T01:01:00.299Z,30.2
2019-01-14T01:01:50.405Z,30.4
2019-01-14T01:02:40.415Z,30.6
2019-01-14T01:03:29.916Z,30.7
2019-01-14T01:04:20.290Z,30.9
2019-01-14T01:05:10.072Z,31
2019-01-14T01:06:00.670Z,31.1
2019-01-14T01:06:50.150Z,31.2
2019-01-14T01:07:39.366Z,31.3
2019-01-14T01:08:30.314Z,31.4
2019-01-14T01:09:20.024Z,31.5
2019-01-14T01:10:11.017Z,31.6
2019-01-14T01:11:00.139Z,31.7
2019-01-14T01:11:49.645Z,31.8
2019-01-14T01:12:42.377Z,31.8
2019-01-14T01:13:30.927Z,31.8
2019-01-14T01:14:20.965Z,31.9
2019-01-14T01:15:11.259Z,32
2019-01-14T01:16:00.759Z,32
2019-01-14T01:16:51.109Z,32.1
2019-01-14T01:17:41.436Z,32.1
2019-01-14T01:18:31.189Z,32.1
2019-01-14T01:19:21.276Z,32.2
2019-01-14T01:20:10.500Z,32.3
2019-01-14T01:21:00.797Z,32.3
2019-01-14T01:21:51.131Z,32.3
2019-01-14T01:22:41.481Z,32.3
2019-01-14T01:23:31.261Z,32.3
2019-01-14T01:24:21.583Z,32.4
2019-01-14T01:25:11.916Z,32.4
2019-01-14T01:26:01.190Z,31.8
2019-01-14T01:26:52.083Z,31.1
2019-01-14T01:27:41.596Z,30.9
2019-01-14T01:28:32.146Z,30.8
2019-01-14T01:29:21.918Z,30.6
2019-01-14T01:30:11.546Z,30.4
2019-01-14T01:31:01.830Z,30.3
2019-01-14T01:31:51.621Z,30.2
2019-01-14T01:32:41.695Z,30.1
2019-01-14T01:33:32.010Z,30.1
2019-01-14T01:34:22.058Z,30
2019-01-14T01:35:12.618Z,29.9
2019-01-14T01:36:02.125Z,29.2
2019-01-14T01:36:52.718Z,28.7
2019-01-14T01:37:42.513Z,27.9
2019-01-14T01:38:32.580Z,28.2
2019-01-14T01:39:22.607Z,28.6
2019-01-14T01:40:12.370Z,28.9
2019-01-14T01:41:04.253Z,29.3
2019-01-14T01:41:52.565Z,29.6
2019-01-14T01:42:42.554Z,29.8
2019-01-14T01:43:32.902Z,29.9
2019-01-14T01:44:23.216Z,30.1
2019-01-14T01:45:14.691Z,30.3
2019-01-14T01:46:03.106Z,30.4
2019-01-14T01:46:52.842Z,30.6
2019-01-14T01:47:43.189Z,30.6
2019-01-14T01:48:32.950Z,30.8
2019-01-14T01:49:23.288Z,30.9
2019-01-14T01:50:13.119Z,30.9
2019-01-14T01:51:03.699Z,31.1
2019-01-14T01:51:53.499Z,31.1
2019-01-14T01:52:43.601Z,31.2
2019-01-14T01:53:33.582Z,31.3
2019-01-14T01:54:23.362Z,31.3
2019-01-14T01:55:13.451Z,31.4
2019-01-14T03:08:52.029Z,31.1
2019-01-14T03:09:41.814Z,31.1
2019-01-14T03:10:31.592Z,31.2
2019-01-14T03:11:21.639Z,31.3
2019-01-14T03:12:11.559Z,31.4
2019-01-14T03:13:02.124Z,31.4
2019-01-14T03:13:51.877Z,31.4
2019-01-14T03:14:42.501Z,31.5
2019-01-14T03:15:32.175Z,31.6
2019-01-14T03:16:22.516Z,31.6
2019-01-14T03:17:12.657Z,31.6
2019-01-14T03:18:02.078Z,31.7
2019-01-14T03:18:52.502Z,31.8
2019-01-14T03:19:42.019Z,31.8
2019-01-14T03:20:32.279Z,31.8
2019-01-14T03:21:22.576Z,31.9
2019-01-14T03:22:12.966Z,31.9
2019-01-14T03:23:02.428Z,31.9
2019-01-14T03:23:52.591Z,32
2019-01-14T03:24:43.134Z,32
2019-01-14T03:25:32.696Z,32
2019-01-14T03:26:22.748Z,31
2019-01-14T03:27:13.275Z,29.7
2019-01-14T03:28:03.030Z,28.4
2019-01-14T03:28:52.618Z,27.6
2019-01-14T03:29:43.460Z,26.3
2019-01-14T03:30:33.351Z,24.9
2019-01-14T03:31:23.126Z,24.2
2019-01-14T03:32:13.746Z,24.3
2019-01-14T03:33:03.088Z,24.8
2019-01-14T03:33:53.715Z,25.9
2019-01-14T03:34:43.483Z,26.7
2019-01-14T03:35:33.274Z,27.4
2019-01-14T03:36:23.302Z,28.1
2019-01-14T03:37:14.038Z,28.8
2019-01-14T03:38:04.008Z,29.1
2019-01-14T03:38:53.467Z,29.4
2019-01-14T03:39:43.604Z,29.7
2019-01-14T03:40:33.617Z,29.9
2019-01-14T03:41:23.971Z,30.1
2019-01-14T03:42:14.342Z,30.3
2019-01-14T03:43:03.770Z,30.4
2019-01-14T03:43:54.114Z,30.6
2019-01-14T03:44:43.627Z,30.7
2019-01-14T03:45:34.219Z,30.8
2019-01-14T03:46:24.266Z,30.9
2019-01-14T03:47:14.663Z,31.1
2019-01-14T03:48:04.729Z,31.2
2019-01-14T03:48:54.527Z,31.3
2019-01-14T03:49:44.238Z,31.4
2019-01-14T03:50:33.559Z,31.4
2019-01-14T03:51:24.347Z,31.5
2019-01-14T03:52:14.700Z,31.6
2019-01-14T03:53:04.558Z,31.6
2019-01-14T03:53:54.834Z,31.8
2019-01-14T03:54:44.824Z,31.8
2019-01-14T03:55:34.679Z,31.8
2019-01-14T03:56:25.224Z,31.9
2019-01-14T03:57:15.026Z,31.9
2019-01-14T03:58:04.606Z,31.9
2019-01-14T03:58:54.839Z,32
2019-01-14T03:59:44.911Z,32
2019-01-14T04:00:35.524Z,32.1
2019-01-14T04:01:24.721Z,32.1
2019-01-14T04:02:15.642Z,32.1
2019-01-14T04:03:05.071Z,32.1
2019-01-14T04:03:55.778Z,32.1
2019-01-14T04:04:45.579Z,32.1
2019-01-14T04:05:35.608Z,32.1
2019-01-14T04:06:25.633Z,32.1
2019-01-14T04:07:21.728Z,32.2
2019-01-14T04:08:05.713Z,32.2
2019-01-14T04:08:55.822Z,32.3
2019-01-14T04:09:45.863Z,32.3
2019-01-14T04:10:35.661Z,32.3
2019-01-14T04:11:25.432Z,32.3
2019-01-14T04:12:15.765Z,32.3
2019-01-14T04:13:06.097Z,32.4
2019-01-14T04:13:55.917Z,32.4
2019-01-14T04:14:45.353Z,32.4
2019-01-14T04:15:36.253Z,31.6
2019-01-14T04:16:26.003Z,31.1
2019-01-14T04:17:16.153Z,30.9
2019-01-14T04:18:06.432Z,30.8
2019-01-14T04:18:55.661Z,30.6
2019-01-14T04:19:45.990Z,30.4
2019-01-14T04:20:36.316Z,30.3
2019-01-14T04:21:26.434Z,30.3
2019-01-14T04:22:16.122Z,30.2
2019-01-14T04:23:08.497Z,30.1
2019-01-14T04:23:56.325Z,30.1
2019-01-14T04:24:47.160Z,29.9
2019-01-14T04:25:37.175Z,29.2
2019-01-14T04:26:26.430Z,28.6
2019-01-14T04:27:17.324Z,28
2019-01-14T04:28:06.590Z,28.4
2019-01-14T04:28:56.905Z,28.8
2019-01-14T04:29:47.217Z,29.2
2019-01-14T04:30:37.295Z,29.6
2019-01-14T04:31:27.152Z,29.8
2019-01-14T04:32:17.404Z,29.9
2019-01-14T04:33:07.409Z,30.1
2019-01-14T04:33:57.783Z,30.3
2019-01-14T04:34:47.885Z,30.4
2019-01-14T04:35:37.028Z,30.5
2019-01-14T04:36:27.702Z,30.6
2019-01-14T04:37:25.779Z,30.8
2019-01-14T04:38:07.529Z,30.9
2019-01-14T04:38:57.815Z,31
2019-01-14T04:39:48.192Z,31.1
2019-01-14T04:40:37.969Z,31.1
2019-01-14T04:41:28.041Z,31.3
2019-01-14T04:42:18.151Z,31.3
2019-01-14T04:43:08.009Z,31.3
2019-01-14T04:43:57.885Z,31.4
2019-01-14T04:44:48.472Z,31.4
2019-01-14T04:45:38.300Z,31.4
2019-01-14T04:46:27.506Z,30.4
2019-01-14T04:47:17.808Z,29.3
2019-01-14T04:48:08.243Z,28
2019-01-14T04:48:58.858Z,27.1
2019-01-14T04:49:48.577Z,25.9
2019-01-14T04:50:38.180Z,24.6
2019-01-14T04:51:28.380Z,23.7
2019-01-14T04:52:18.750Z,23.8
2019-01-14T04:53:08.528Z,24.2
2019-01-14T04:53:58.883Z,25.4
2019-01-14T04:54:49.155Z,26.3
2019-01-14T04:55:38.404Z,27
2019-01-14T04:56:29.060Z,27.7
2019-01-14T04:57:18.540Z,28.3
2019-01-14T04:58:08.945Z,28.8
2019-01-14T04:58:59.446Z,29.1
2019-01-14T04:59:48.737Z,29.4
2019-01-14T05:00:39.293Z,29.6
2019-01-14T05:01:29.642Z,29.8
2019-01-14T05:02:19.787Z,30
2019-01-14T05:03:09.229Z,30.2
2019-01-14T05:03:59.530Z,30.4
2019-01-14T05:04:49.297Z,30.5
2019-01-14T05:05:39.627Z,30.6
2019-01-14T05:06:28.688Z,30.8
2019-01-14T05:07:19.439Z,30.8
2019-01-14T05:08:09.853Z,30.9
2019-01-14T05:08:59.577Z,31
2019-01-14T05:09:49.372Z,31.1
2019-01-14T05:10:39.759Z,31.2
2019-01-14T05:11:30.070Z,31.3
2019-01-14T05:12:19.566Z,31.4
2019-01-14T05:13:10.156Z,31.4
2019-01-14T05:14:00.206Z,31.3
2019-01-14T05:14:49.136Z,30.8
2019-01-14T05:15:42.045Z,30.4
2019-01-14T05:16:30.356Z,30.2
2019-01-14T05:17:19.872Z,30
2019-01-14T05:18:10.466Z,29.9
2019-01-14T05:19:00.249Z,29.8
2019-01-14T05:19:50.859Z,29.7
2019-01-14T05:20:40.616Z,29.7
2019-01-14T05:21:30.526Z,29.6
2019-01-14T05:22:20.553Z,29.6
2019-01-14T05:23:10.074Z,29.5
2019-01-14T05:24:00.378Z,29.5
2019-01-14T05:24:49.702Z,29.4
2019-01-14T05:25:40.024Z,29.4
2019-01-14T05:26:30.551Z,29.3
2019-01-14T05:27:20.895Z,29.3
2019-01-14T05:28:10.209Z,29.2
2019-01-14T05:28:59.904Z,29.1
2019-01-14T05:29:50.745Z,29.1
2019-01-14T05:30:40.260Z,28.9
2019-01-14T05:31:30.600Z,28.9
2019-01-14T05:32:21.462Z,28.8
2019-01-14T05:33:10.821Z,28.8
2019-01-14T05:34:01.237Z,28.6
2019-01-14T05:34:51.392Z,28.6
2019-01-14T05:35:41.386Z,28.5
2019-01-14T05:36:31.806Z,28.4
2019-01-14T05:37:21.756Z,28.3
2019-01-14T05:38:11.809Z,28.2
2019-01-14T05:39:01.871Z,28.1
2019-01-14T05:39:52.179Z,28.1
2019-01-14T05:40:42.078Z,27.9
2019-01-14T05:41:31.754Z,27.9
2019-01-14T05:42:21.831Z,27.8
2019-01-14T05:43:12.388Z,27.7
2019-01-14T05:44:01.369Z,27.6
2019-01-14T05:44:52.266Z,27.4
2019-01-14T05:45:42.058Z,27.3
2019-01-14T05:46:32.628Z,27.3
2019-01-14T05:47:21.646Z,27.1
2019-01-14T05:48:12.851Z,27.1
2019-01-14T05:49:02.793Z,27
2019-01-14T05:49:52.295Z,27.1
2019-01-14T05:50:42.428Z,30.9
2019-01-14T05:51:32.681Z,33.6
2019-01-14T05:52:22.770Z,35.2
2019-01-14T05:53:13.075Z,36.4
2019-01-14T05:54:03.128Z,37.3
2019-01-14T05:54:52.913Z,37.8
2019-01-14T05:55:43.260Z,38.6
2019-01-14T05:56:32.467Z,39
2019-01-14T05:57:23.125Z,38.7
2019-01-14T05:58:13.152Z,37.8
2019-01-14T05:59:03.175Z,37.2
2019-01-14T05:59:53.307Z,36.7
2019-01-14T06:00:43.084Z,36.4
2019-01-14T06:01:33.115Z,36.1
2019-01-14T06:02:23.406Z,35.6
2019-01-14T06:03:13.805Z,35.1
2019-01-14T06:04:03.858Z,34
2019-01-14T06:06:51.829Z,30.4
2019-01-14T06:07:49.220Z,29.2
2019-01-14T06:08:31.779Z,28.3
2019-01-14T06:10:12.127Z,27.3
2019-01-14T06:11:02.122Z,31.8
2019-01-14T06:11:52.202Z,34.6
2019-01-14T06:12:42.313Z,36
2019-01-14T06:13:32.360Z,37
2019-01-14T06:14:22.355Z,37.7
2019-01-14T06:15:12.539Z,38.4
2019-01-14T06:16:01.775Z,39.2
2019-01-14T06:16:51.814Z,39.5
2019-01-14T06:17:42.086Z,39.4
2019-01-14T06:18:32.204Z,38.1
2019-01-14T06:19:22.206Z,37.3
2019-01-14T06:20:11.966Z,36.8
2019-01-14T06:21:02.057Z,36.4
2019-01-14T06:21:52.171Z,36
2019-01-14T06:22:42.191Z,35.7
2019-01-14T06:23:32.481Z,35.1
2019-01-14T06:24:21.723Z,34.3
2019-01-14T06:25:12.611Z,33.2
2019-01-14T06:26:02.721Z,32
2019-01-14T06:26:52.146Z,30.9
2019-01-14T06:27:42.533Z,29.9
2019-01-14T06:28:32.018Z,29.1
2019-01-14T06:29:22.643Z,28.4
2019-01-14T06:30:12.920Z,27.9
2019-01-14T06:31:01.935Z,31.8
2019-01-14T06:31:52.275Z,34.9
2019-01-14T06:32:42.343Z,36.8
2019-01-14T06:33:32.675Z,38
2019-01-14T06:34:22.575Z,38.9
2019-01-14T06:35:12.761Z,39.4
2019-01-14T06:36:04.619Z,39.8
2019-01-14T06:36:52.371Z,39.8
2019-01-14T06:37:42.648Z,38.6
2019-01-14T06:38:32.556Z,37.6
2019-01-14T06:39:23.530Z,37
2019-01-14T06:40:13.549Z,36.5
2019-01-14T06:41:03.657Z,36.1
2019-01-14T06:41:53.885Z,35.8
2019-01-14T06:42:43.824Z,35.3
2019-01-14T06:43:33.992Z,34.4
2019-01-14T06:44:24.407Z,33.3
2019-01-14T06:45:13.934Z,32.1
2019-01-14T06:46:04.474Z,30.9
2019-01-14T06:46:53.757Z,30
2019-01-14T06:47:44.376Z,29.2
2019-01-14T06:48:35.522Z,28.5
2019-01-14T06:49:23.450Z,27.9
2019-01-14T06:50:13.994Z,27.6
2019-01-14T06:51:04.333Z,29.8
2019-01-14T06:51:54.139Z,33.7
2019-01-14T06:52:44.171Z,36.1
2019-01-14T06:53:34.496Z,37.5
2019-01-14T06:54:24.281Z,38.4
2019-01-14T06:55:13.887Z,38.5
2019-01-14T06:56:04.666Z,37.4
2019-01-14T06:56:54.734Z,36.7
2019-01-14T06:57:44.825Z,36.3
2019-01-14T06:58:34.541Z,36
2019-01-14T06:59:24.897Z,35.7
2019-01-14T07:00:14.211Z,35
2019-01-14T07:01:05.054Z,36.3
2019-01-14T07:01:55.053Z,38.1
2019-01-14T07:02:44.320Z,38.9
2019-01-14T07:03:34.682Z,38.8
2019-01-14T07:04:24.690Z,37.6
2019-01-14T07:06:51.356Z,36
2019-01-14T07:07:40.892Z,35.1
2019-01-14T07:08:30.947Z,33.7
2019-01-14T07:09:21.502Z,32.1
2019-01-14T07:10:11.279Z,30.9
2019-01-14T07:11:01.049Z,29.8
2019-01-14T07:11:51.159Z,28.9
2019-01-14T07:12:41.712Z,28.3
2019-01-14T07:13:31.519Z,27.6
2019-01-14T07:14:21.544Z,27.3
2019-01-14T07:15:11.609Z,26.9
2019-01-14T07:16:01.926Z,26.7
2019-01-14T07:16:51.785Z,26.4
2019-01-14T07:17:41.261Z,26.3
2019-01-14T07:18:31.861Z,26.1
2019-01-14T07:19:21.676Z,26
2019-01-14T07:20:12.214Z,25.9
2019-01-14T07:21:01.805Z,25.8
2019-01-14T07:21:52.054Z,25.8
2019-01-14T07:22:42.159Z,25.7
2019-01-14T07:23:32.391Z,25.6
2019-01-14T07:24:22.451Z,25.6
2019-01-14T07:25:13.033Z,25.5
2019-01-14T07:26:03.103Z,25.4
2019-01-14T07:26:53.149Z,25.4
2019-01-14T07:27:42.456Z,25.4
2019-01-14T07:28:33.304Z,25.3
2019-01-14T07:29:22.873Z,25.3
2019-01-14T07:30:12.340Z,25.3
2019-01-14T07:31:02.622Z,25.2
2019-01-14T07:31:52.711Z,25.2
2019-01-14T07:32:43.316Z,25.1
2019-01-14T07:33:33.315Z,25.1
2019-01-14T07:34:23.430Z,25.1
2019-01-14T07:35:13.183Z,25
2019-01-14T07:36:03.773Z,25
2019-01-14T07:36:53.555Z,25
2019-01-14T07:37:43.012Z,24.9
2019-01-14T07:38:33.975Z,24.9
2019-01-14T07:39:22.870Z,24.9
2019-01-14T07:40:14.062Z,24.8
2019-01-14T07:41:03.540Z,24.8
2019-01-14T07:41:54.142Z,24.8
2019-01-14T07:42:43.915Z,24.8
2019-01-14T07:43:33.977Z,24.8
2019-01-14T07:44:24.370Z,24.7
2019-01-14T07:45:13.855Z,24.7
2019-01-14T07:46:04.230Z,24.6
2019-01-14T07:46:54.539Z,24.6
2019-01-14T07:47:43.794Z,24.6
2019-01-14T07:48:34.034Z,24.6
2019-01-14T07:49:24.639Z,24.6
2019-01-14T07:50:14.724Z,24.6
2019-01-14T07:51:03.939Z,24.5
2019-01-14T07:51:54.592Z,24.4
2019-01-14T07:52:44.629Z,24.4
2019-01-14T07:53:34.374Z,24.4
2019-01-14T07:54:24.994Z,24.4
2019-01-14T07:55:15.161Z,24.4
2019-01-14T07:56:04.321Z,24.4
2019-01-14T07:56:54.607Z,24.4
2019-01-14T07:57:44.961Z,24.3
2019-01-14T07:58:35.309Z,24.3
2019-01-14T07:59:25.340Z,24.3
2019-01-14T08:00:15.154Z,24.3
2019-01-14T08:01:05.179Z,24.3
2019-01-14T08:01:55.220Z,24.3
2019-01-14T08:02:45.571Z,24.3
2019-01-14T08:03:35.630Z,24.2
2019-01-14T08:04:25.113Z,24.2
2019-01-14T08:05:15.179Z,24.2
2019-01-14T08:06:05.833Z,24.1
2019-01-14T08:06:55.833Z,24.1
2019-01-14T08:07:45.663Z,24.1
2019-01-14T08:08:35.939Z,24.1
2019-01-14T08:09:26.063Z,24.1
2019-01-14T08:10:15.843Z,24.1
2019-01-14T08:11:05.593Z,24
2019-01-14T08:11:56.183Z,24
2019-01-14T08:12:46.318Z,24
2019-01-14T08:13:35.965Z,24
2019-01-14T08:14:26.103Z,23.9
2019-01-14T08:15:15.862Z,23.9
2019-01-14T08:16:06.225Z,23.9
2019-01-14T08:16:56.562Z,23.9
2019-01-14T08:17:46.281Z,23.9
2019-01-14T08:18:36.642Z,23.9
2019-01-14T08:19:27.541Z,23.8
2019-01-14T08:20:16.505Z,23.8
2019-01-14T08:21:06.787Z,23.8
2019-01-14T08:21:56.548Z,23.8
2019-01-14T08:22:46.927Z,23.8
2019-01-14T08:23:36.920Z,23.8
2019-01-14T08:24:27.052Z,23.8
2019-01-14T08:25:16.774Z,23.8
2019-01-14T08:26:06.889Z,23.7
2019-01-14T08:26:57.150Z,23.7
2019-01-14T08:27:46.209Z,23.7
2019-01-14T08:28:36.735Z,23.6
2019-01-14T08:29:27.060Z,23.6
2019-01-14T08:30:17.494Z,23.6
2019-01-14T08:31:07.795Z,23.6
2019-01-14T08:31:57.498Z,23.6
2019-01-14T08:32:47.079Z,23.6
2019-01-14T08:33:37.654Z,23.6
2019-01-14T08:34:27.669Z,23.5
2019-01-14T08:35:17.736Z,23.5
2019-01-14T08:36:07.269Z,23.5
2019-01-14T08:37:04.761Z,23.5
2019-01-14T08:37:47.930Z,23.4
2019-01-14T08:38:37.939Z,23.4
2019-01-14T08:39:27.806Z,23.4
2019-01-14T08:40:16.967Z,23.4
2019-01-14T08:41:07.561Z,23.4
2019-01-14T08:41:57.903Z,23.4
2019-01-14T08:42:47.946Z,23.4
2019-01-14T08:43:38.326Z,23.3
2019-01-14T08:44:28.346Z,23.3
2019-01-14T08:45:18.146Z,23.3
2019-01-14T08:46:08.208Z,23.3
2019-01-14T08:46:58.288Z,23.3
2019-01-14T08:47:48.598Z,23.3
2019-01-14T08:49:51.221Z,23.3
2019-01-14T08:50:02.431Z,23.3
2019-01-14T08:50:53.004Z,23.2
2019-01-14T08:51:42.515Z,23.2
2019-01-14T08:52:31.698Z,23.2
2019-01-14T08:53:23.188Z,23.2
2019-01-14T08:54:12.499Z,23.3
2019-01-14T08:55:02.910Z,23.2
2019-01-14T08:55:52.866Z,23.3
2019-01-14T08:56:42.105Z,23.3
2019-01-14T08:57:33.030Z,23.2
2019-01-14T08:58:22.760Z,23.3
2019-01-14T08:59:12.893Z,23.3
2019-01-14T09:00:03.397Z,23.3
2019-01-14T09:00:52.936Z,23.3
2019-01-14T09:01:42.995Z,23.4
2019-01-14T09:02:33.257Z,23.4
2019-01-14T09:03:23.080Z,23.4
2019-01-14T09:04:12.863Z,23.4
2019-01-14T09:05:03.239Z,23.8
2019-01-14T09:05:53.573Z,29.4
2019-01-14T09:06:43.302Z,32.4
2019-01-14T09:07:33.154Z,34.1
2019-01-14T09:08:30.561Z,35.4
2019-01-14T09:09:13.465Z,36.5
2019-01-14T09:10:03.945Z,37.4
2019-01-14T09:10:53.327Z,38.2
2019-01-14T09:11:43.377Z,38.4
2019-01-14T09:12:33.429Z,37.6
2019-01-14T09:13:23.484Z,36.9
2019-01-14T09:14:14.091Z,36.4
2019-01-14T09:15:03.897Z,36.1
2019-01-14T09:15:54.429Z,35.8
2019-01-14T09:16:43.733Z,35.4
2019-01-14T09:17:33.762Z,34.7
2019-01-14T09:18:23.524Z,33.6
2019-01-14T09:19:13.879Z,32.4
2019-01-14T09:20:04.889Z,31.1
2019-01-14T09:20:54.037Z,29.8
2019-01-14T09:21:44.613Z,28.9
2019-01-14T09:22:33.821Z,28.1
2019-01-14T09:23:24.904Z,28.1
2019-01-14T09:24:14.588Z,32.7
2019-01-14T09:25:05.374Z,35.4
2019-01-14T09:26:01.561Z,37
2019-01-14T09:26:46.985Z,38.3
2019-01-14T09:27:34.720Z,39
2019-01-14T09:28:23.923Z,39.4
2019-01-14T09:29:15.086Z,39.7
2019-01-14T09:30:04.453Z,39.3
2019-01-14T09:30:54.669Z,38
2019-01-14T09:31:45.541Z,37.2
2019-01-14T09:32:35.035Z,36.6
2019-01-14T09:33:25.683Z,36.3
2019-01-14T09:34:15.368Z,35.9
2019-01-14T09:35:05.795Z,35.4
2019-01-14T09:35:55.805Z,34.6
2019-01-14T09:36:45.848Z,33.5
2019-01-14T09:37:35.662Z,32.3
2019-01-14T09:38:25.474Z,31
2019-01-14T09:39:15.588Z,29.9
2019-01-14T09:40:06.097Z,29
2019-01-14T09:40:56.434Z,28.3
2019-01-14T09:41:45.592Z,28.8
2019-01-14T09:42:36.203Z,33.1
2019-01-14T09:43:26.545Z,35.8
2019-01-14T09:44:16.368Z,37.4
2019-01-14T09:45:06.650Z,38.4
2019-01-14T09:45:55.951Z,39.1
2019-01-14T09:46:46.477Z,39.4
2019-01-14T09:47:36.817Z,39.2
2019-01-14T09:48:26.887Z,37.9
2019-01-14T09:49:16.698Z,37.1
2019-01-14T09:50:06.764Z,36.5
2019-01-14T09:50:56.759Z,36.1
2019-01-14T09:51:47.117Z,35.9
2019-01-14T09:52:37.009Z,35.4
2019-01-14T09:53:27.239Z,34.4
2019-01-14T09:54:16.788Z,33.1
2019-01-14T09:55:12.484Z,31.9
2019-01-14T09:55:57.101Z,30.6
2019-01-14T09:56:47.431Z,29.7
2019-01-14T09:57:38.675Z,28.9
2019-01-14T09:58:27.008Z,28.2
2019-01-14T09:59:17.604Z,28.3
2019-01-14T10:00:07.727Z,32.8
2019-01-14T10:00:57.721Z,35.4
2019-01-14T10:01:47.528Z,37
2019-01-14T10:02:36.723Z,37.6
2019-01-14T10:03:26.846Z,36.6
2019-01-14T10:04:16.318Z,35.9
2019-01-14T10:05:07.791Z,35.6
2019-01-14T10:07:51.634Z,33.1
2019-01-14T10:08:48.443Z,33.4
2019-01-14T10:09:30.933Z,36.6
2019-01-14T10:10:21.943Z,37.8
2019-01-14T10:11:11.033Z,38.6
2019-01-14T10:12:01.625Z,38.3
2019-01-14T10:12:51.713Z,37.2
2019-01-14T10:13:42.011Z,36.5
2019-01-14T10:14:31.840Z,36.1
2019-01-14T10:15:21.960Z,35.6
2019-01-14T10:16:12.193Z,34.7
2019-01-14T10:17:01.680Z,33.2
2019-01-14T10:17:52.075Z,31.7
2019-01-14T10:18:42.415Z,30.4
2019-01-14T10:19:32.464Z,29.4
2019-01-14T10:20:22.183Z,28.6
2019-01-14T10:21:11.980Z,28
2019-01-14T10:22:02.587Z,27.5
2019-01-14T10:22:52.425Z,29.9
2019-01-14T10:23:42.700Z,33.8
2019-01-14T10:24:32.547Z,35.9
2019-01-14T10:25:22.796Z,37.3
2019-01-14T10:26:12.917Z,36.8
2019-01-14T10:27:02.367Z,36
2019-01-14T10:27:52.498Z,35.6
2019-01-14T10:28:42.802Z,35.4
2019-01-14T10:29:33.090Z,35
2019-01-14T10:30:22.379Z,33.8
2019-01-14T10:31:13.205Z,32.3
2019-01-14T10:32:02.974Z,30.8
2019-01-14T10:32:52.777Z,31.3
2019-01-14T10:33:43.394Z,34.9
2019-01-14T10:34:32.713Z,36.8
2019-01-14T10:35:22.180Z,37.8
2019-01-14T10:36:13.255Z,37.3
2019-01-14T10:37:03.032Z,36.5
2019-01-14T10:37:53.398Z,35.9
2019-01-14T10:38:50.128Z,35.7
2019-01-14T10:39:33.235Z,34.9
2019-01-14T10:40:23.732Z,33.8
2019-01-14T10:41:13.090Z,32.1
2019-01-14T10:42:08.157Z,30.8
2019-01-14T10:42:53.695Z,29.6
2019-01-14T10:43:43.810Z,28.8
2019-01-14T10:44:33.837Z,28.1
2019-01-14T10:45:23.680Z,29.8
2019-01-14T10:46:13.924Z,33.8
2019-01-14T10:47:03.770Z,36
2019-01-14T10:47:54.093Z,37.3
2019-01-14T10:48:44.235Z,37.3
2019-01-14T10:49:34.162Z,36.4
2019-01-14T10:50:24.007Z,35.9
2019-01-14T10:51:13.439Z,35.6
2019-01-14T10:52:03.767Z,35.3
2019-01-14T10:52:53.999Z,34.4
2019-01-14T10:53:44.419Z,32.9
2019-01-14T10:54:34.759Z,31.4
2019-01-14T10:55:24.844Z,30.3
2019-01-14T10:56:14.116Z,30.1
2019-01-14T10:57:04.242Z,34
2019-01-14T10:57:54.462Z,36.3
2019-01-14T10:58:43.744Z,37.5
2019-01-14T10:59:33.862Z,37.6
2019-01-14T11:00:24.683Z,36.6
2019-01-14T11:01:14.783Z,36.1
2019-01-14T11:02:04.496Z,35.7
2019-01-14T11:02:56.186Z,35.3
2019-01-14T11:03:44.896Z,34.3
2019-01-14T11:04:34.951Z,32.7
2019-01-14T11:05:24.756Z,31.3
2019-01-14T11:06:15.078Z,30.1
2019-01-14T11:07:04.653Z,29.2
2019-01-14T11:07:54.714Z,28.5
2019-01-14T11:08:45.443Z,31.2
2019-01-14T11:09:35.797Z,34.7
2019-01-14T11:10:25.833Z,36.6
2019-01-14T11:11:14.861Z,37.7
2019-01-14T11:12:05.191Z,37.1
2019-01-14T11:12:55.296Z,36.4
2019-01-14T11:13:44.661Z,35.9
2019-01-14T11:14:37.728Z,35.5
2019-01-14T11:15:25.926Z,35.1
2019-01-14T11:16:15.381Z,34
2019-01-14T11:17:05.795Z,32.5
2019-01-14T11:17:55.318Z,31.1
2019-01-14T11:18:45.835Z,33.3
2019-01-14T11:19:36.158Z,36.1
2019-01-14T11:20:26.040Z,37.6
2019-01-14T11:21:20.747Z,38.3
2019-01-14T11:22:06.336Z,37.1
2019-01-14T11:22:56.125Z,36.5
2019-01-14T11:23:46.723Z,36
2019-01-14T11:24:36.225Z,35.6
2019-01-14T11:25:26.575Z,34.9
2019-01-14T11:26:16.612Z,33.4
2019-01-14T11:27:06.937Z,31.9
2019-01-14T11:27:56.769Z,30.6
2019-01-14T11:28:46.817Z,29.6
2019-01-14T11:29:36.810Z,28.9
2019-01-14T11:30:26.944Z,28.3
2019-01-14T11:31:16.952Z,30.3
2019-01-14T11:32:07.325Z,34.1
2019-01-14T11:32:57.354Z,36.3
2019-01-14T11:33:47.252Z,37.4
2019-01-14T11:34:37.447Z,37
2019-01-14T11:35:27.534Z,36.3
2019-01-14T11:36:17.433Z,35.8
2019-01-14T11:37:07.393Z,35.5
2019-01-14T11:37:57.695Z,35
2019-01-14T11:38:47.739Z,33.8
2019-01-14T11:39:37.512Z,32.3
2019-01-14T11:40:27.664Z,30.9
2019-01-14T11:41:17.971Z,29.9
2019-01-14T11:42:07.709Z,29.1
2019-01-14T11:42:57.467Z,29.4
2019-01-14T11:43:48.093Z,33.6
2019-01-14T11:44:38.118Z,36.1
2019-01-14T11:45:27.636Z,37.4
2019-01-14T11:46:17.696Z,38.1
2019-01-14T11:47:07.869Z,37.1
2019-01-14T11:47:57.521Z,36.4
2019-01-14T11:48:47.848Z,35.9
2019-01-14T11:49:38.478Z,35.7
2019-01-14T11:50:28.006Z,35.1
2019-01-14T11:51:18.593Z,34
2019-01-14T11:52:08.381Z,32.5
2019-01-14T11:52:58.708Z,31.2
2019-01-14T11:53:48.176Z,30.1
2019-01-14T11:54:37.692Z,30.1
2019-01-14T11:55:28.316Z,34.1
2019-01-14T11:56:18.343Z,36.4
2019-01-14T11:57:10.400Z,37.6
2019-01-14T11:57:59.043Z,37.2
2019-01-14T11:58:48.833Z,36.4
2019-01-14T11:59:38.968Z,35.9
2019-01-14T12:00:36.219Z,35.7
2019-01-14T12:01:19.287Z,34.9
2019-01-14T12:02:08.748Z,33.9
2019-01-14T12:02:59.431Z,32.3
2019-01-14T12:03:49.160Z,30.9
2019-01-14T12:04:38.921Z,29.9
2019-01-14T12:05:29.593Z,29.1
2019-01-14T12:07:51.652Z,34.1
2019-01-14T12:08:56.759Z,36.7
2019-01-14T12:09:30.519Z,38.1
2019-01-14T12:10:21.479Z,37.6
2019-01-14T12:11:15.637Z,36.8
2019-01-14T12:12:00.474Z,36.1
2019-01-14T12:12:50.809Z,35.8
2019-01-14T12:13:41.357Z,35.5
2019-01-14T12:14:30.869Z,34.7
2019-01-14T12:15:21.439Z,33.3
2019-01-14T12:16:10.690Z,31.9
2019-01-14T12:17:01.543Z,30.7
2019-01-14T12:17:51.034Z,29.7
2019-01-14T12:18:41.922Z,32.8
2019-01-14T12:19:31.716Z,35.7
2019-01-14T12:20:21.484Z,37.3
2019-01-14T12:21:11.852Z,38
2019-01-14T12:22:01.351Z,37
2019-01-14T12:22:52.042Z,36.4
2019-01-14T12:23:41.439Z,35.9
2019-01-14T12:24:32.619Z,35.6
2019-01-14T12:25:23.872Z,34.8
2019-01-14T12:26:12.161Z,33.4
2019-01-14T12:27:02.000Z,32
2019-01-14T12:27:52.024Z,30.8
2019-01-14T12:28:42.044Z,29.8
2019-01-14T12:29:32.387Z,29.1
2019-01-14T12:30:22.444Z,29.4